createdAt,value
2017-11-23T00:01:00.124Z,0
2017-11-23T00:02:12.802Z,0
2017-11-23T00:03:25.495Z,0
2017-11-23T00:04:38.232Z,0
2017-11-23T00:05:50.895Z,0
2017-11-23T00:07:03.602Z,0
2017-11-23T00:08:15.339Z,0
2017-11-23T00:09:28.068Z,0
2017-11-23T00:10:40.843Z,0
2017-11-23T00:11:53.604Z,0
2017-11-23T00:13:05.886Z,0
2017-11-23T00:14:18.623Z,0
2017-11-23T00:15:31.371Z,0
2017-11-23T00:16:44.158Z,0
2017-11-23T00:17:56.895Z,0
2017-11-23T00:19:09.184Z,0
2017-11-23T00:20:21.501Z,0
2017-11-23T00:21:34.277Z,0
2017-11-23T00:22:47.025Z,0
2017-11-23T00:23:59.755Z,0
2017-11-23T00:25:12.514Z,0
2017-11-23T00:26:25.241Z,0
2017-11-23T00:27:37.994Z,0
2017-11-23T00:28:50.748Z,0
2017-11-23T00:30:03.499Z,0
2017-11-23T00:31:15.333Z,0
2017-11-23T00:32:28.089Z,0
2017-11-23T00:33:40.855Z,0
2017-11-23T00:34:53.575Z,0
2017-11-23T00:36:06.296Z,0
2017-11-23T00:37:19.061Z,0
2017-11-23T00:38:30.910Z,0
2017-11-23T00:39:43.657Z,0
2017-11-23T00:40:56.389Z,0
2017-11-23T00:42:08.660Z,0
2017-11-23T00:43:21.395Z,0
2017-11-23T00:44:33.673Z,0
2017-11-23T00:45:46.416Z,0
2017-11-23T00:46:59.137Z,0
2017-11-23T00:48:11.863Z,0
2017-11-23T00:49:24.598Z,0
2017-11-23T00:50:37.321Z,0
2017-11-23T00:51:50.042Z,0
2017-11-23T00:53:02.779Z,0
2017-11-23T00:54:15.065Z,0
2017-11-23T00:55:27.339Z,0
2017-11-23T00:56:40.097Z,0
2017-11-23T00:57:52.384Z,0
2017-11-23T00:59:05.112Z,0
2017-11-23T01:00:17.897Z,0
2017-11-23T01:01:30.129Z,0
2017-11-23T01:02:41.922Z,0
2017-11-23T01:03:54.593Z,0
2017-11-23T01:05:07.274Z,0
2017-11-23T01:06:19.945Z,0
2017-11-23T01:07:32.192Z,0
2017-11-23T01:08:44.864Z,0
2017-11-23T01:09:57.537Z,0
2017-11-23T01:11:10.244Z,0
2017-11-23T01:12:22.893Z,0
2017-11-23T01:13:35.605Z,0
2017-11-23T01:14:48.293Z,0
2017-11-23T01:16:00.984Z,0
2017-11-23T01:17:13.677Z,0
2017-11-23T01:18:25.938Z,0
2017-11-23T01:19:38.643Z,0
2017-11-23T01:20:50.908Z,0
2017-11-23T01:22:03.131Z,0
2017-11-23T01:23:15.863Z,0
2017-11-23T01:24:28.560Z,0
2017-11-23T01:25:41.244Z,0
2017-11-23T01:26:53.964Z,0
2017-11-23T01:28:06.701Z,0
2017-11-23T01:29:19.381Z,0
2017-11-23T01:30:31.645Z,0
2017-11-23T01:31:44.353Z,0
2017-11-23T01:32:57.070Z,0
2017-11-23T01:34:09.771Z,0
2017-11-23T01:35:22.483Z,0
2017-11-23T01:36:35.176Z,0
2017-11-23T01:37:47.917Z,0
2017-11-23T01:39:00.672Z,0
2017-11-23T01:40:13.405Z,0
2017-11-23T01:41:26.137Z,0
2017-11-23T01:42:38.390Z,0
2017-11-23T01:43:51.124Z,0
2017-11-23T01:45:03.799Z,0
2017-11-23T01:46:16.073Z,0
2017-11-23T01:47:28.287Z,0
2017-11-23T01:48:40.987Z,0
2017-11-23T01:49:53.238Z,0
2017-11-23T01:51:05.943Z,0
2017-11-23T01:52:18.229Z,0
2017-11-23T01:53:30.937Z,0
2017-11-23T01:54:43.610Z,0
2017-11-23T01:55:56.306Z,0
2017-11-23T01:57:09.013Z,0
2017-11-23T01:58:21.716Z,0
2017-11-23T01:59:34.421Z,0
2017-11-23T02:00:47.085Z,0
2017-11-23T02:01:59.774Z,0
2017-11-23T02:03:12.457Z,0
2017-11-23T02:04:24.729Z,0
2017-11-23T02:05:37.431Z,0
2017-11-23T02:06:50.151Z,0
2017-11-23T02:08:02.857Z,0
2017-11-23T02:09:15.084Z,0
2017-11-23T02:10:27.853Z,0
2017-11-23T02:11:40.557Z,0
2017-11-23T02:12:53.215Z,0
2017-11-23T02:14:05.926Z,0
2017-11-23T02:15:18.153Z,0
2017-11-23T02:16:30.966Z,0
2017-11-23T02:17:43.664Z,0
2017-11-23T02:18:56.313Z,0
2017-11-23T02:20:08.525Z,0
2017-11-23T02:21:21.256Z,0
2017-11-23T02:22:33.911Z,0
2017-11-23T02:23:46.156Z,0
2017-11-23T02:24:58.832Z,0
2017-11-23T02:26:11.059Z,0
2017-11-23T02:27:23.788Z,0
2017-11-23T02:28:36.457Z,0
2017-11-23T02:29:48.697Z,0
2017-11-23T02:31:01.394Z,0
2017-11-23T02:32:13.172Z,0
2017-11-23T02:33:25.884Z,0
2017-11-23T02:34:38.564Z,0
2017-11-23T02:35:55.513Z,0
2017-11-23T02:37:08.228Z,0
2017-11-23T02:38:20.945Z,0
2017-11-23T02:39:33.702Z,0
2017-11-23T02:40:46.401Z,0
2017-11-23T02:41:59.137Z,0
2017-11-23T02:43:12.160Z,0
2017-11-23T02:44:24.856Z,0
2017-11-23T02:45:37.562Z,0
2017-11-23T02:46:50.239Z,0
2017-11-23T02:48:02.975Z,0
2017-11-23T02:49:15.250Z,0
2017-11-23T02:50:27.884Z,0
2017-11-23T02:51:40.109Z,0
2017-11-23T02:52:52.781Z,0
2017-11-23T02:54:05.450Z,0
2017-11-23T02:55:18.252Z,0
2017-11-23T02:56:30.957Z,0
2017-11-23T02:57:43.654Z,0
2017-11-23T02:58:56.347Z,0
2017-11-23T03:00:09.129Z,0
2017-11-23T03:01:21.842Z,0
2017-11-23T03:02:34.496Z,0
2017-11-23T03:03:47.171Z,0
2017-11-23T03:05:02.178Z,0
2017-11-23T03:06:14.838Z,0
2017-11-23T03:07:27.548Z,0
2017-11-23T03:08:40.238Z,0
2017-11-23T03:09:52.483Z,0
2017-11-23T03:11:05.174Z,0
2017-11-23T03:12:17.857Z,0
2017-11-23T03:13:30.529Z,0
2017-11-23T03:14:43.222Z,0
2017-11-23T03:15:56.511Z,0
2017-11-23T03:17:09.242Z,0
2017-11-23T03:18:21.081Z,0
2017-11-23T03:19:33.814Z,0
2017-11-23T03:20:46.123Z,0
2017-11-23T03:21:58.878Z,0
2017-11-23T03:23:11.174Z,0
2017-11-23T03:24:23.007Z,0
2017-11-23T03:25:35.288Z,0
2017-11-23T03:26:48.059Z,0
2017-11-23T03:28:00.787Z,0
2017-11-23T03:29:13.544Z,0
2017-11-23T03:30:25.847Z,0
2017-11-23T03:31:38.601Z,0
2017-11-23T03:32:51.328Z,0
2017-11-23T03:34:04.082Z,0
2017-11-23T03:35:16.830Z,0
2017-11-23T03:36:29.108Z,0
2017-11-23T03:37:41.843Z,0
2017-11-23T03:38:54.569Z,0
2017-11-23T03:40:07.305Z,0
2017-11-23T03:41:19.613Z,0
2017-11-23T03:42:31.905Z,0
2017-11-23T03:43:44.192Z,0
2017-11-23T03:44:56.948Z,0
2017-11-23T03:46:09.692Z,0
2017-11-23T03:47:22.462Z,0
2017-11-23T03:48:35.229Z,0
2017-11-23T03:49:48.001Z,0
2017-11-23T03:51:00.760Z,0
2017-11-23T03:52:13.502Z,0
2017-11-23T03:53:26.244Z,0
2017-11-23T03:54:38.992Z,0
2017-11-23T03:55:51.730Z,0
2017-11-23T03:57:04.020Z,0
2017-11-23T03:58:16.774Z,0
2017-11-23T03:59:29.055Z,0
2017-11-23T04:00:41.789Z,0
2017-11-23T04:01:54.522Z,0
2017-11-23T04:03:07.259Z,0
2017-11-23T04:04:19.563Z,0
2017-11-23T04:05:32.286Z,0
2017-11-23T04:06:45.022Z,0
2017-11-23T04:07:57.765Z,0
2017-11-23T04:09:10.057Z,0
2017-11-23T04:10:22.817Z,0
2017-11-23T04:11:35.557Z,0
2017-11-23T04:12:48.299Z,0
2017-11-23T04:14:01.051Z,0
2017-11-23T04:15:13.813Z,0
2017-11-23T04:16:26.573Z,0
2017-11-23T04:17:39.322Z,0
2017-11-23T04:18:51.642Z,0
2017-11-23T04:20:04.415Z,0
2017-11-23T04:21:17.173Z,0
2017-11-23T04:22:29.508Z,0
2017-11-23T04:23:41.792Z,0
2017-11-23T04:24:54.554Z,0
2017-11-23T04:26:06.847Z,0
2017-11-23T04:27:19.618Z,0
2017-11-23T04:28:32.396Z,0
2017-11-23T04:29:44.679Z,0
2017-11-23T04:30:56.989Z,0
2017-11-23T04:32:09.757Z,0
2017-11-23T04:33:22.500Z,0
2017-11-23T04:34:34.813Z,0
2017-11-23T04:35:47.116Z,0
2017-11-23T04:36:59.882Z,0
2017-11-23T04:38:12.662Z,0
2017-11-23T04:39:25.401Z,0
2017-11-23T04:40:38.152Z,0
2017-11-23T04:41:50.926Z,0
2017-11-23T04:43:03.680Z,0
2017-11-23T04:44:16.417Z,0
2017-11-23T04:45:29.180Z,0
2017-11-23T04:46:41.476Z,0
2017-11-23T04:47:54.201Z,0
2017-11-23T04:49:06.853Z,0
2017-11-23T04:50:19.515Z,0
2017-11-23T04:51:32.205Z,0
2017-11-23T04:52:44.909Z,0
2017-11-23T04:53:57.567Z,0
2017-11-23T04:55:09.795Z,0
2017-11-23T04:56:22.032Z,0
2017-11-23T04:57:34.707Z,0
2017-11-23T04:58:47.405Z,0
2017-11-23T05:00:00.095Z,0
2017-11-23T05:01:12.264Z,0
2017-11-23T05:02:24.480Z,0
2017-11-23T05:03:36.760Z,0
2017-11-23T05:04:49.417Z,0
2017-11-23T05:06:02.197Z,0
2017-11-23T05:07:14.875Z,0
2017-11-23T05:08:27.583Z,0
2017-11-23T05:09:40.248Z,0
2017-11-23T05:10:52.973Z,0
2017-11-23T05:12:05.689Z,0
2017-11-23T05:13:18.402Z,0
2017-11-23T05:14:30.683Z,0
2017-11-23T05:15:43.421Z,0
2017-11-23T05:16:56.114Z,0
2017-11-23T05:18:08.356Z,0
2017-11-23T05:19:21.049Z,0
2017-11-23T05:20:33.720Z,0
2017-11-23T05:21:46.421Z,0
2017-11-23T05:22:59.178Z,0
2017-11-23T05:24:11.501Z,0
2017-11-23T05:25:24.272Z,0
2017-11-23T05:26:37.066Z,0
2017-11-23T05:27:49.831Z,0
2017-11-23T05:29:02.594Z,0
2017-11-23T05:30:14.473Z,0
2017-11-23T05:31:26.787Z,0
2017-11-23T05:32:39.101Z,0
2017-11-23T05:33:51.885Z,0
2017-11-23T05:35:04.665Z,0
2017-11-23T05:36:17.461Z,0
2017-11-23T05:37:30.243Z,0
2017-11-23T05:38:43.053Z,0
2017-11-23T05:39:55.852Z,0
2017-11-23T05:41:08.648Z,0
2017-11-23T05:42:21.456Z,0
2017-11-23T05:43:34.267Z,0
2017-11-23T05:44:47.033Z,0
2017-11-23T05:45:59.821Z,0
2017-11-23T05:47:12.146Z,0
2017-11-23T05:48:24.945Z,0
2017-11-23T05:49:37.756Z,0
2017-11-23T05:50:50.530Z,0
2017-11-23T05:52:03.332Z,0
2017-11-23T05:53:16.121Z,0
2017-11-23T05:54:28.458Z,0
2017-11-23T05:55:40.322Z,0
2017-11-23T05:56:52.653Z,0
2017-11-23T05:58:05.429Z,0
2017-11-23T05:59:17.753Z,0
2017-11-23T06:00:30.531Z,0
2017-11-23T06:01:42.873Z,0
2017-11-23T06:02:55.655Z,0
2017-11-23T06:04:08.413Z,0
2017-11-23T06:05:21.164Z,0
2017-11-23T06:06:33.911Z,0
2017-11-23T06:07:46.646Z,0
2017-11-23T06:08:59.396Z,0
2017-11-23T06:10:12.123Z,0
2017-11-23T06:11:24.857Z,0
2017-11-23T06:12:37.607Z,0
2017-11-23T06:13:49.908Z,0
2017-11-23T06:15:02.637Z,0
2017-11-23T06:16:14.986Z,0
2017-11-23T06:17:27.730Z,0
2017-11-23T06:18:40.473Z,0
2017-11-23T06:19:53.202Z,0
2017-11-23T06:21:05.928Z,0
2017-11-23T06:22:18.666Z,0
2017-11-23T06:23:31.429Z,0
2017-11-23T06:24:44.181Z,0
2017-11-23T06:25:56.925Z,0
2017-11-23T06:27:09.750Z,0
2017-11-23T06:28:22.470Z,0
2017-11-23T06:29:35.213Z,0
2017-11-23T06:30:47.471Z,0
2017-11-23T06:32:00.150Z,0
2017-11-23T06:33:12.822Z,0
2017-11-23T06:34:25.471Z,0
2017-11-23T06:35:38.137Z,0
2017-11-23T06:36:50.822Z,0
2017-11-23T06:38:03.051Z,0
2017-11-23T06:39:15.794Z,0
2017-11-23T06:40:28.062Z,0
2017-11-23T06:41:40.770Z,0
2017-11-23T06:42:53.489Z,0
2017-11-23T06:44:06.213Z,0
2017-11-23T06:45:18.846Z,0
2017-11-23T06:46:31.594Z,0
2017-11-23T06:47:44.290Z,0
2017-11-23T06:48:56.988Z,0
2017-11-23T06:50:09.736Z,0
2017-11-23T06:51:22.755Z,0
2017-11-23T06:52:35.465Z,0
2017-11-23T06:53:48.157Z,0
2017-11-23T06:55:01.008Z,0
2017-11-23T06:56:13.715Z,0
2017-11-23T06:57:26.488Z,0
2017-11-23T06:58:39.215Z,0
2017-11-23T06:59:51.969Z,0
2017-11-23T07:01:04.700Z,0
2017-11-23T07:02:16.913Z,0
2017-11-23T07:03:29.606Z,0
2017-11-23T07:04:42.363Z,0
2017-11-23T07:05:55.103Z,0
2017-11-23T07:07:07.881Z,0
2017-11-23T07:08:20.179Z,0
2017-11-23T07:09:32.471Z,0
2017-11-23T07:10:45.239Z,0
2017-11-23T07:11:58.018Z,0
2017-11-23T07:13:10.796Z,0
2017-11-23T07:14:23.570Z,0
2017-11-23T07:15:35.908Z,0
2017-11-23T07:16:48.240Z,0
2017-11-23T07:18:01.030Z,0
2017-11-23T07:19:13.778Z,0
2017-11-23T07:20:26.098Z,0
2017-11-23T07:21:38.985Z,0
2017-11-23T07:22:51.803Z,0
2017-11-23T07:24:04.559Z,0
2017-11-23T07:25:16.863Z,0
2017-11-23T07:26:29.633Z,0
2017-11-23T07:27:42.419Z,0
2017-11-23T07:28:54.736Z,0
2017-11-23T07:30:07.469Z,0
2017-11-23T07:31:20.234Z,0
2017-11-23T07:32:33.101Z,0
2017-11-23T07:33:45.890Z,0
2017-11-23T07:34:58.694Z,0
2017-11-23T07:36:10.987Z,0
2017-11-23T07:37:22.790Z,0
2017-11-23T07:38:35.114Z,0
2017-11-23T07:39:47.854Z,0
2017-11-23T07:41:00.173Z,0
2017-11-23T07:42:12.903Z,0
2017-11-23T07:43:25.687Z,0
2017-11-23T07:44:37.986Z,0
2017-11-23T07:45:50.280Z,0
2017-11-23T07:47:02.585Z,0
2017-11-23T07:48:14.910Z,0
2017-11-23T07:49:27.679Z,0
2017-11-23T07:50:40.442Z,0
2017-11-23T07:51:52.725Z,0
2017-11-23T07:53:05.446Z,0
2017-11-23T07:54:18.195Z,0
2017-11-23T07:55:30.967Z,0
2017-11-23T07:56:43.713Z,0
2017-11-23T07:57:56.476Z,0
2017-11-23T07:59:09.221Z,0
2017-11-23T08:00:21.083Z,0
2017-11-23T08:01:33.836Z,0
2017-11-23T08:02:46.101Z,0
2017-11-23T08:03:58.846Z,0
2017-11-23T08:05:11.619Z,0
2017-11-23T08:06:23.958Z,0
2017-11-23T08:07:36.270Z,0
2017-11-23T08:08:49.051Z,0
2017-11-23T08:10:01.773Z,0
2017-11-23T08:11:14.501Z,0
2017-11-23T08:12:27.270Z,0
2017-11-23T08:13:39.511Z,0
2017-11-23T08:14:52.235Z,0
2017-11-23T08:16:04.975Z,0
2017-11-23T08:17:17.650Z,0
2017-11-23T08:18:30.413Z,0
2017-11-23T08:19:43.184Z,0
2017-11-23T08:20:55.942Z,0
2017-11-23T08:22:08.230Z,0
2017-11-23T08:23:20.935Z,0
2017-11-23T08:24:33.651Z,0
2017-11-23T08:25:46.353Z,0
2017-11-23T08:26:59.031Z,0
2017-11-23T08:28:11.751Z,0
2017-11-23T08:29:24.401Z,0
2017-11-23T08:30:37.087Z,0
2017-11-23T08:31:49.799Z,0
2017-11-23T08:33:02.050Z,0
2017-11-23T08:34:14.292Z,0
2017-11-23T08:35:26.532Z,0
2017-11-23T08:36:38.799Z,0
2017-11-23T08:37:50.599Z,0
2017-11-23T08:39:03.312Z,0
2017-11-23T08:40:15.969Z,0
2017-11-23T08:41:28.655Z,0
2017-11-23T08:42:41.332Z,0
2017-11-23T08:43:53.621Z,0
2017-11-23T08:45:06.393Z,0
2017-11-23T08:46:19.116Z,0
2017-11-23T08:47:30.872Z,0
2017-11-23T08:48:43.037Z,0
2017-11-23T08:49:55.646Z,0
2017-11-23T08:51:08.260Z,0
2017-11-23T08:52:20.399Z,0
2017-11-23T08:53:33.046Z,0
2017-11-23T08:54:45.248Z,0
2017-11-23T08:55:57.942Z,0
2017-11-23T08:57:10.127Z,0
2017-11-23T08:58:22.832Z,0
2017-11-23T08:59:34.170Z,0
2017-11-23T09:00:45.885Z,0
2017-11-23T09:01:58.481Z,0
2017-11-23T09:03:11.234Z,0
2017-11-23T09:04:23.443Z,5
2017-11-23T09:05:36.082Z,5
2017-11-23T09:06:48.283Z,0
2017-11-23T09:08:00.894Z,5
2017-11-23T09:09:13.514Z,5
2017-11-23T09:10:26.223Z,5
2017-11-23T09:11:38.940Z,0
2017-11-23T09:12:51.655Z,0
2017-11-23T09:14:03.884Z,5
2017-11-23T09:15:16.538Z,5
2017-11-23T09:16:29.145Z,5
2017-11-23T09:17:41.813Z,5
2017-11-23T09:18:54.072Z,5
2017-11-23T09:20:06.832Z,5
2017-11-23T09:21:19.095Z,5
2017-11-23T09:22:31.880Z,5
2017-11-23T09:23:43.696Z,5
2017-11-23T09:24:55.995Z,5
2017-11-23T09:26:08.739Z,5
2017-11-23T09:27:21.501Z,5
2017-11-23T09:28:34.257Z,5
2017-11-23T09:29:46.542Z,5
2017-11-23T09:30:58.858Z,5
2017-11-23T09:32:11.145Z,5
2017-11-23T09:33:23.909Z,5
2017-11-23T09:34:36.674Z,5
2017-11-23T09:35:48.966Z,5
2017-11-23T09:37:01.679Z,5
2017-11-23T09:38:14.405Z,5
2017-11-23T09:39:27.133Z,5
2017-11-23T09:40:39.929Z,5
2017-11-23T09:41:52.638Z,5
2017-11-23T09:43:05.430Z,5
2017-11-23T09:44:18.202Z,5
2017-11-23T09:45:30.472Z,5
2017-11-23T09:46:43.241Z,5
2017-11-23T09:47:55.944Z,5
2017-11-23T09:49:08.233Z,5
2017-11-23T09:50:21.005Z,5
2017-11-23T09:51:33.299Z,5
2017-11-23T09:52:46.078Z,5
2017-11-23T09:53:58.827Z,5
2017-11-23T09:55:11.605Z,5
2017-11-23T09:56:24.358Z,5
2017-11-23T09:57:37.084Z,5
2017-11-23T09:58:48.430Z,5
2017-11-23T10:00:00.725Z,5
2017-11-23T10:01:13.422Z,5
2017-11-23T10:02:26.147Z,10
2017-11-23T10:03:38.856Z,10
2017-11-23T10:04:51.603Z,10
2017-11-23T10:06:03.929Z,10
2017-11-23T10:07:16.189Z,10
2017-11-23T10:08:28.955Z,15
2017-11-23T10:09:40.768Z,15
2017-11-23T10:10:53.051Z,15
2017-11-23T10:12:05.755Z,15
2017-11-23T10:13:18.014Z,15
2017-11-23T10:14:30.286Z,15
2017-11-23T10:15:43.006Z,10
2017-11-23T10:16:55.272Z,10
2017-11-23T10:18:07.526Z,10
2017-11-23T10:19:20.240Z,10
2017-11-23T10:20:32.903Z,15
2017-11-23T10:21:45.614Z,15
2017-11-23T10:22:58.359Z,15
2017-11-23T10:24:11.086Z,15
2017-11-23T10:25:23.308Z,15
2017-11-23T10:26:35.576Z,15
2017-11-23T10:27:48.284Z,10
2017-11-23T10:29:00.519Z,10
2017-11-23T10:30:13.192Z,10
2017-11-23T10:31:25.902Z,15
2017-11-23T10:32:38.136Z,15
2017-11-23T10:33:50.367Z,15
2017-11-23T10:35:02.612Z,10
2017-11-23T10:36:15.264Z,10
2017-11-23T10:37:27.988Z,20
2017-11-23T10:38:40.210Z,20
2017-11-23T10:39:52.919Z,20
2017-11-23T10:41:05.593Z,20
2017-11-23T10:42:17.808Z,20
2017-11-23T10:43:30.500Z,20
2017-11-23T10:44:43.164Z,25
2017-11-23T10:45:55.852Z,20
2017-11-23T10:47:08.521Z,25
2017-11-23T10:48:21.199Z,30
2017-11-23T10:49:34.080Z,25
2017-11-23T10:50:46.774Z,20
2017-11-23T10:51:59.454Z,20
2017-11-23T10:53:11.705Z,20
2017-11-23T10:54:23.484Z,20
2017-11-23T10:55:35.715Z,25
2017-11-23T10:56:48.413Z,25
2017-11-23T10:58:01.147Z,25
2017-11-23T10:59:13.835Z,25
2017-11-23T11:00:26.529Z,30
2017-11-23T11:01:38.751Z,30
2017-11-23T11:02:51.445Z,25
2017-11-23T11:04:04.106Z,20
2017-11-23T11:05:16.770Z,20
2017-11-23T11:06:29.477Z,20
2017-11-23T11:07:41.758Z,20
2017-11-23T11:08:54.421Z,15
2017-11-23T11:10:07.182Z,20
2017-11-23T11:11:19.846Z,25
2017-11-23T11:12:32.084Z,30
2017-11-23T11:13:44.726Z,30
2017-11-23T11:14:57.406Z,25
2017-11-23T11:16:10.021Z,25
2017-11-23T11:17:22.692Z,25
2017-11-23T11:18:35.312Z,35
2017-11-23T11:19:47.876Z,35
2017-11-23T11:21:00.540Z,30
2017-11-23T11:22:13.225Z,25
2017-11-23T11:23:25.926Z,20
2017-11-23T11:24:38.536Z,25
2017-11-23T11:25:51.282Z,20
2017-11-23T11:27:03.970Z,20
2017-11-23T11:28:16.639Z,20
2017-11-23T11:29:28.864Z,20
2017-11-23T11:30:41.539Z,20
2017-11-23T11:31:54.132Z,20
2017-11-23T11:33:06.491Z,20
2017-11-23T11:34:19.207Z,20
2017-11-23T11:35:31.385Z,30
2017-11-23T11:36:43.586Z,35
2017-11-23T11:37:56.188Z,35
2017-11-23T11:39:08.780Z,45
2017-11-23T11:40:21.437Z,50
2017-11-23T11:41:34.085Z,55
2017-11-23T11:42:46.295Z,55
2017-11-23T11:43:58.946Z,50
2017-11-23T11:45:11.238Z,45
2017-11-23T11:46:23.937Z,40
2017-11-23T11:47:36.217Z,30
2017-11-23T11:48:48.060Z,25
2017-11-23T11:50:00.773Z,20
2017-11-23T11:51:12.693Z,20
2017-11-23T11:52:25.471Z,20
2017-11-23T11:53:38.228Z,20
2017-11-23T11:54:50.974Z,20
2017-11-23T11:56:03.708Z,25
2017-11-23T11:57:16.468Z,40
2017-11-23T11:58:29.210Z,50
2017-11-23T11:59:41.961Z,70
2017-11-23T12:00:53.801Z,70
2017-11-23T12:02:06.560Z,60
2017-11-23T12:03:19.338Z,40
2017-11-23T12:04:32.117Z,40
2017-11-23T12:05:45.036Z,40
2017-11-23T12:06:57.812Z,35
2017-11-23T12:08:10.604Z,60
2017-11-23T12:09:22.477Z,35
2017-11-23T12:10:34.780Z,30
2017-11-23T12:11:47.557Z,30
2017-11-23T12:13:00.333Z,30
2017-11-23T12:14:12.634Z,35
2017-11-23T12:15:25.408Z,35
2017-11-23T12:16:38.192Z,30
2017-11-23T12:17:50.953Z,25
2017-11-23T12:19:03.667Z,20
2017-11-23T12:20:16.377Z,25
2017-11-23T12:21:28.664Z,20
2017-11-23T12:22:40.940Z,20
2017-11-23T12:23:53.646Z,20
2017-11-23T12:25:05.906Z,20
2017-11-23T12:26:17.744Z,20
2017-11-23T12:27:30.025Z,20
2017-11-23T12:28:42.302Z,25
2017-11-23T12:29:54.999Z,25
2017-11-23T12:31:07.654Z,25
2017-11-23T12:32:19.867Z,25
2017-11-23T12:33:31.676Z,25
2017-11-23T12:34:43.897Z,25
2017-11-23T12:35:56.608Z,25
2017-11-23T12:37:09.267Z,25
2017-11-23T12:38:21.017Z,25
2017-11-23T12:39:33.695Z,20
2017-11-23T12:40:46.409Z,20
2017-11-23T12:41:59.136Z,20
2017-11-23T12:43:11.375Z,20
2017-11-23T12:44:24.082Z,15
2017-11-23T12:45:36.768Z,20
2017-11-23T12:46:49.044Z,20
2017-11-23T12:48:01.298Z,20
2017-11-23T12:49:13.065Z,20
2017-11-23T12:50:24.903Z,25
2017-11-23T12:51:37.583Z,30
2017-11-23T12:52:49.346Z,30
2017-11-23T12:54:01.583Z,30
2017-11-23T12:55:13.838Z,30
2017-11-23T12:56:26.487Z,25
2017-11-23T12:57:39.178Z,20
2017-11-23T12:58:51.899Z,20
2017-11-23T13:00:04.161Z,20
2017-11-23T13:01:16.442Z,20
2017-11-23T13:02:28.197Z,20
2017-11-23T13:03:40.878Z,20
2017-11-23T13:04:53.138Z,20
2017-11-23T13:06:05.388Z,20
2017-11-23T13:07:18.068Z,20
2017-11-23T13:08:30.400Z,20
2017-11-23T13:09:43.038Z,20
2017-11-23T13:10:55.282Z,25
2017-11-23T13:12:07.570Z,30
2017-11-23T13:13:20.322Z,25
2017-11-23T13:14:32.620Z,25
2017-11-23T13:15:45.293Z,25
2017-11-23T13:16:57.995Z,30
2017-11-23T13:18:10.199Z,35
2017-11-23T13:19:21.919Z,40
2017-11-23T13:20:34.203Z,40
2017-11-23T13:21:46.874Z,40
2017-11-23T13:22:59.556Z,35
2017-11-23T13:24:12.225Z,35
2017-11-23T13:25:24.934Z,35
2017-11-23T13:26:37.677Z,30
2017-11-23T13:27:49.970Z,30
2017-11-23T13:29:02.708Z,25
2017-11-23T13:30:14.549Z,25
2017-11-23T13:31:26.841Z,25
2017-11-23T13:32:38.676Z,25
2017-11-23T13:33:51.413Z,25
2017-11-23T13:35:04.154Z,20
2017-11-23T13:36:16.908Z,20
2017-11-23T13:37:29.645Z,20
2017-11-23T13:38:41.494Z,20
2017-11-23T13:39:54.230Z,20
2017-11-23T13:41:06.509Z,20
2017-11-23T13:42:19.289Z,20
2017-11-23T13:43:32.042Z,20
2017-11-23T13:44:44.787Z,20
2017-11-23T13:45:57.619Z,20
2017-11-23T13:47:10.353Z,20
2017-11-23T13:48:23.101Z,20
2017-11-23T13:49:35.387Z,20
2017-11-23T13:50:48.134Z,20
2017-11-23T13:51:59.963Z,20
2017-11-23T13:53:11.794Z,20
2017-11-23T13:54:24.532Z,20
2017-11-23T13:55:36.802Z,20
2017-11-23T13:56:49.549Z,20
2017-11-23T13:58:02.368Z,20
2017-11-23T13:59:14.651Z,20
2017-11-23T14:00:27.401Z,20
2017-11-23T14:01:39.238Z,25
2017-11-23T14:02:51.062Z,25
2017-11-23T14:04:03.801Z,30
2017-11-23T14:05:18.537Z,35
2017-11-23T14:06:30.810Z,35
2017-11-23T14:07:43.092Z,35
2017-11-23T14:08:55.835Z,45
2017-11-23T14:10:08.595Z,50
2017-11-23T14:11:20.875Z,50
2017-11-23T14:12:33.184Z,50
2017-11-23T14:13:45.478Z,50
2017-11-23T14:14:58.203Z,45
2017-11-23T14:16:10.962Z,45
2017-11-23T14:17:23.262Z,50
2017-11-23T14:18:36.029Z,55
2017-11-23T14:19:47.862Z,55
2017-11-23T14:21:00.153Z,55
2017-11-23T14:22:12.458Z,55
2017-11-23T14:23:24.741Z,55
2017-11-23T14:24:37.026Z,60
2017-11-23T14:26:23.352Z,55
2017-11-23T14:27:36.913Z,55
2017-11-23T14:28:49.653Z,55
2017-11-23T14:30:02.390Z,55
2017-11-23T14:31:15.135Z,50
2017-11-23T14:32:27.421Z,45
2017-11-23T14:33:39.704Z,45
2017-11-23T14:34:51.986Z,45
2017-11-23T14:36:04.703Z,45
2017-11-23T14:37:24.451Z,40
2017-11-23T14:38:37.191Z,40
2017-11-23T14:39:49.918Z,40
2017-11-23T14:41:02.190Z,40
2017-11-23T14:42:14.912Z,40
2017-11-23T14:43:27.626Z,40
2017-11-23T14:44:39.451Z,40
2017-11-23T14:45:51.737Z,50
2017-11-23T14:47:03.562Z,50
2017-11-23T14:48:20.521Z,50
2017-11-23T14:49:42.862Z,40
2017-11-23T14:50:55.595Z,40
2017-11-23T14:52:07.423Z,40
2017-11-23T14:53:20.147Z,40
2017-11-23T14:54:32.857Z,40
2017-11-23T14:55:45.591Z,50
2017-11-23T14:56:58.323Z,50
2017-11-23T14:58:10.585Z,50
2017-11-23T14:59:23.316Z,55
2017-11-23T15:00:36.052Z,80
2017-11-23T15:01:48.767Z,105
2017-11-23T15:03:01.511Z,95
2017-11-23T15:04:14.238Z,55
2017-11-23T15:05:26.978Z,55
2017-11-23T15:06:39.709Z,55
2017-11-23T15:07:51.991Z,60
2017-11-23T15:09:04.280Z,50
2017-11-23T15:10:27.471Z,45
2017-11-23T15:11:39.742Z,45
2017-11-23T15:12:51.977Z,40
2017-11-23T15:14:04.247Z,40
2017-11-23T15:15:16.479Z,40
2017-11-23T15:16:28.675Z,45
2017-11-23T15:17:40.881Z,45
2017-11-23T15:18:53.550Z,55
2017-11-23T15:21:50.181Z,60
2017-11-23T15:23:02.392Z,40
2017-11-23T15:24:15.036Z,40
2017-11-23T15:25:27.699Z,35
2017-11-23T15:26:40.382Z,35
2017-11-23T15:27:52.217Z,35
2017-11-23T15:29:04.482Z,35
2017-11-23T15:30:17.187Z,35
2017-11-23T15:31:44.704Z,40
2017-11-23T15:33:06.351Z,40
2017-11-23T15:34:19.057Z,40
2017-11-23T15:35:31.738Z,40
2017-11-23T15:36:44.401Z,40
2017-11-23T15:37:56.181Z,45
2017-11-23T15:39:08.832Z,40
2017-11-23T15:40:21.044Z,40
2017-11-23T15:41:33.753Z,35
2017-11-23T15:42:46.481Z,30
2017-11-23T15:43:59.126Z,25
2017-11-23T15:45:11.813Z,20
2017-11-23T15:46:24.555Z,20
2017-11-23T15:47:37.293Z,30
2017-11-23T15:48:50.068Z,35
2017-11-23T15:50:02.826Z,35
2017-11-23T15:51:14.666Z,35
2017-11-23T15:52:29.196Z,30
2017-11-23T15:53:44.667Z,30
2017-11-23T15:54:57.428Z,35
2017-11-23T15:56:09.722Z,35
2017-11-23T15:57:22.499Z,40
2017-11-23T15:58:34.798Z,35
2017-11-23T15:59:47.533Z,35
2017-11-23T16:01:00.268Z,30
2017-11-23T16:02:13.012Z,30
2017-11-23T16:03:25.773Z,25
2017-11-23T16:04:40.366Z,30
2017-11-23T16:05:53.141Z,25
2017-11-23T16:07:05.908Z,30
2017-11-23T16:08:18.675Z,30
2017-11-23T16:09:31.430Z,30
2017-11-23T16:10:43.737Z,30
2017-11-23T16:11:56.532Z,30
2017-11-23T16:13:09.303Z,30
2017-11-23T16:14:25.240Z,30
2017-11-23T16:15:38.689Z,30
2017-11-23T16:16:51.458Z,30
2017-11-23T16:18:04.241Z,35
2017-11-23T16:19:17.036Z,35
2017-11-23T16:20:29.811Z,35
2017-11-23T16:21:42.138Z,35
2017-11-23T16:22:53.983Z,40
2017-11-23T16:24:06.772Z,40
2017-11-23T16:25:36.884Z,40
2017-11-23T16:26:49.692Z,40
2017-11-23T16:28:02.030Z,40
2017-11-23T16:29:14.853Z,45
2017-11-23T16:30:27.628Z,45
2017-11-23T16:31:40.377Z,45
2017-11-23T16:32:53.148Z,50
2017-11-23T16:34:05.911Z,50
2017-11-23T16:35:18.241Z,50
2017-11-23T16:36:33.022Z,50
2017-11-23T16:37:46.385Z,45
2017-11-23T16:38:59.162Z,50
2017-11-23T16:40:11.490Z,55
2017-11-23T16:41:24.257Z,55
2017-11-23T16:42:37.058Z,55
2017-11-23T16:43:49.873Z,55
2017-11-23T16:45:02.184Z,55
2017-11-23T16:46:14.956Z,50
2017-11-23T16:47:27.898Z,40
2017-11-23T16:48:40.687Z,40
2017-11-23T16:49:53.474Z,35
2017-11-23T16:51:06.250Z,25
2017-11-23T16:52:19.013Z,25
2017-11-23T16:53:31.346Z,25
2017-11-23T16:54:43.676Z,20
2017-11-23T16:55:56.471Z,20
2017-11-23T16:57:08.697Z,20
2017-11-23T16:58:22.436Z,20
2017-11-23T16:59:35.471Z,20
2017-11-23T17:00:48.194Z,20
2017-11-23T17:02:00.876Z,20
2017-11-23T17:03:13.522Z,20
2017-11-23T17:04:26.159Z,20
2017-11-23T17:05:38.500Z,20
2017-11-23T17:06:51.173Z,30
2017-11-23T17:08:03.839Z,30
2017-11-23T17:09:16.029Z,25
2017-11-23T17:10:28.724Z,20
2017-11-23T17:11:41.404Z,20
2017-11-23T17:12:54.095Z,20
2017-11-23T17:14:06.286Z,20
2017-11-23T17:15:18.518Z,20
2017-11-23T17:16:31.252Z,20
2017-11-23T17:17:43.961Z,20
2017-11-23T17:18:56.141Z,25
2017-11-23T17:20:08.837Z,30
2017-11-23T17:21:21.116Z,30
2017-11-23T17:22:33.921Z,25
2017-11-23T17:23:46.340Z,30
2017-11-23T17:24:58.764Z,40
2017-11-23T17:26:10.150Z,40
2017-11-23T17:27:22.464Z,40
2017-11-23T17:28:35.155Z,45
2017-11-23T17:29:47.956Z,50
2017-11-23T17:31:00.252Z,45
2017-11-23T17:32:12.068Z,40
2017-11-23T17:33:24.817Z,35
2017-11-23T17:34:37.078Z,30
2017-11-23T17:35:49.792Z,30
2017-11-23T17:37:02.553Z,25
2017-11-23T17:38:18.921Z,25
2017-11-23T17:39:33.024Z,20
2017-11-23T17:40:45.691Z,20